createdAt,value
2019-01-24T00:00:08.870Z,81.10
2019-01-24T00:01:08.843Z,83.10
2019-01-24T00:02:08.819Z,89.10
2019-01-24T00:03:08.791Z,85.40
2019-01-24T00:04:08.766Z,83.00
2019-01-24T00:05:08.734Z,83.70
2019-01-24T00:06:08.708Z,88.10
2019-01-24T00:07:08.680Z,88.60
2019-01-24T00:08:08.653Z,87.90
2019-01-24T00:09:08.629Z,84.20
2019-01-24T00:10:08.612Z,86.80
2019-01-24T00:11:08.575Z,89.60
2019-01-24T00:12:08.564Z,87.20
2019-01-24T00:13:08.530Z,88.30
2019-01-24T00:14:08.491Z,89.90
2019-01-24T00:15:08.473Z,90.30
2019-01-24T00:16:08.444Z,86.80
2019-01-24T00:17:08.411Z,87.00
2019-01-24T00:18:08.414Z,88.80
2019-01-24T00:19:08.358Z,88.70
2019-01-24T00:20:08.332Z,86.70
2019-01-24T00:21:08.304Z,88.50
2019-01-24T00:22:08.277Z,89.90
2019-01-24T00:23:08.250Z,91.10
2019-01-24T00:24:08.226Z,86.30
2019-01-24T00:25:08.201Z,87.50
2019-01-24T00:26:08.169Z,88.10
2019-01-24T00:28:08.120Z,85.50
2019-01-24T00:29:08.095Z,90.70
2019-01-24T00:30:08.067Z,99.50
2019-01-24T00:31:08.035Z,91.30
2019-01-24T00:32:08.005Z,94.80
2019-01-24T00:33:07.976Z,92.30
2019-01-24T00:34:07.953Z,91.10
2019-01-24T00:35:07.923Z,89.90
2019-01-24T00:36:07.900Z,89.50
2019-01-24T00:37:07.868Z,97.20
2019-01-24T00:38:07.850Z,94.20
2019-01-24T00:39:07.815Z,95.20
2019-01-24T00:40:07.788Z,89.70
2019-01-24T00:41:07.760Z,89.00
2019-01-24T00:42:07.733Z,95.50
2019-01-24T00:43:07.705Z,88.00
2019-01-24T00:44:07.680Z,90.00
2019-01-24T00:45:07.656Z,94.30
2019-01-24T00:46:07.626Z,93.30
2019-01-24T00:47:07.599Z,95.40
2019-01-24T00:48:07.574Z,98.10
2019-01-24T00:49:07.543Z,93.00
2019-01-24T00:50:07.518Z,96.40
2019-01-24T00:51:07.491Z,92.30
2019-01-24T00:52:07.466Z,91.10
2019-01-24T00:53:07.437Z,97.10
2019-01-24T00:54:07.411Z,92.40
2019-01-24T00:55:07.381Z,95.90
2019-01-24T00:56:07.364Z,97.30
2019-01-24T00:57:07.329Z,93.20
2019-01-24T00:58:07.300Z,92.70
2019-01-24T00:59:07.283Z,94.50
2019-01-24T01:00:07.249Z,92.40
2019-01-24T01:01:07.220Z,94.30
2019-01-24T01:02:07.192Z,92.80
2019-01-24T01:03:07.164Z,93.70
2019-01-24T01:04:07.137Z,96.70
2019-01-24T01:05:07.111Z,96.40
2019-01-24T01:06:07.083Z,92.20
2019-01-24T01:07:07.052Z,98.20
2019-01-24T01:08:07.027Z,97.20
2019-01-24T01:09:07.000Z,94.30
2019-01-24T01:10:06.980Z,94.10
2019-01-24T01:11:06.944Z,90.30
2019-01-24T01:12:06.920Z,98.60
2019-01-24T01:13:06.891Z,98.00
2019-01-24T01:14:06.865Z,98.90
2019-01-24T01:15:06.837Z,96.40
2019-01-24T01:16:06.810Z,99.80
2019-01-24T01:17:06.783Z,93.30
2019-01-24T01:18:06.756Z,96.30
2019-01-24T01:19:06.728Z,97.10
2019-01-24T01:20:06.701Z,96.40
2019-01-24T01:21:06.673Z,105.00
2019-01-24T01:22:06.649Z,93.70
2019-01-24T01:23:06.615Z,104.30
2019-01-24T01:24:06.597Z,98.30
2019-01-24T01:25:06.566Z,96.00
2019-01-24T01:26:06.541Z,98.80
2019-01-24T01:27:06.509Z,92.60
2019-01-24T01:28:06.485Z,102.50
2019-01-24T01:29:06.456Z,93.30
2019-01-24T01:30:06.432Z,100.90
2019-01-24T01:31:06.407Z,97.60
2019-01-24T01:32:06.378Z,100.90
2019-01-24T01:33:06.353Z,105.10
2019-01-24T01:34:06.320Z,109.80
2019-01-24T01:35:06.291Z,98.50
2019-01-24T01:36:06.264Z,103.50
2019-01-24T01:37:06.236Z,101.00
2019-01-24T01:38:06.210Z,102.70
2019-01-24T01:39:06.185Z,98.60
2019-01-24T01:40:06.155Z,104.90
2019-01-24T01:41:06.126Z,102.10
2019-01-24T01:42:06.113Z,97.40
2019-01-24T01:43:06.074Z,95.90
2019-01-24T01:44:06.051Z,102.10
2019-01-24T01:45:06.019Z,108.80
2019-01-24T01:46:05.993Z,103.80
2019-01-24T01:47:05.963Z,105.70
2019-01-24T01:48:05.936Z,100.60
2019-01-24T01:49:05.909Z,106.80
2019-01-24T01:50:05.882Z,104.90
2019-01-24T01:51:05.864Z,102.50
2019-01-24T01:52:05.827Z,106.60
2019-01-24T01:53:05.799Z,103.30
2019-01-24T01:54:05.780Z,112.00
2019-01-24T01:55:05.747Z,104.10
2019-01-24T01:56:05.717Z,106.90
2019-01-24T01:57:05.688Z,109.10
2019-01-24T01:58:05.661Z,110.50
2019-01-24T01:59:05.645Z,101.90
2019-01-24T02:00:05.609Z,106.40
2019-01-24T02:01:05.588Z,101.50
2019-01-24T02:02:05.552Z,103.90
2019-01-24T02:03:05.528Z,106.80
2019-01-24T02:04:05.498Z,97.00
2019-01-24T02:05:05.468Z,106.20
2019-01-24T02:06:05.441Z,107.70
2019-01-24T02:07:05.430Z,105.00
2019-01-24T02:08:05.384Z,99.30
2019-01-24T02:09:05.365Z,104.60
2019-01-24T02:10:05.332Z,103.80
2019-01-24T02:11:05.305Z,105.50
2019-01-24T02:12:05.275Z,107.40
2019-01-24T02:13:05.253Z,105.40
2019-01-24T02:14:05.231Z,101.50
2019-01-24T02:15:05.198Z,106.50
2019-01-24T02:16:05.165Z,103.40
2019-01-24T02:17:05.141Z,106.80
2019-01-24T02:18:05.112Z,112.60
2019-01-24T02:19:05.083Z,112.10
2019-01-24T02:20:05.057Z,113.50
2019-01-24T02:21:05.031Z,106.20
2019-01-24T02:22:05.004Z,110.50
2019-01-24T02:23:04.976Z,101.60
2019-01-24T02:24:04.948Z,111.40
2019-01-24T02:25:04.924Z,106.70
2019-01-24T02:26:04.894Z,107.50
2019-01-24T02:27:04.862Z,112.60
2019-01-24T02:28:04.840Z,112.30
2019-01-24T02:29:04.814Z,111.50
2019-01-24T02:30:04.791Z,112.00
2019-01-24T02:31:04.760Z,113.20
2019-01-24T02:32:04.728Z,111.40
2019-01-24T02:33:04.705Z,110.20
2019-01-24T02:34:04.674Z,111.50
2019-01-24T02:35:04.641Z,106.80
2019-01-24T02:36:04.615Z,107.20
2019-01-24T02:37:04.594Z,109.40
2019-01-24T02:38:04.563Z,116.40
2019-01-24T02:39:04.538Z,114.90
2019-01-24T02:40:04.509Z,113.10
2019-01-24T02:41:04.481Z,112.10
2019-01-24T02:42:04.452Z,109.20
2019-01-24T02:43:04.423Z,117.60
2019-01-24T02:44:04.396Z,110.50
2019-01-24T02:45:04.369Z,108.60
2019-01-24T02:46:04.344Z,109.90
2019-01-24T02:47:04.313Z,116.30
2019-01-24T02:48:04.283Z,114.90
2019-01-24T02:49:04.263Z,113.00
2019-01-24T02:50:04.230Z,112.80
2019-01-24T02:51:04.205Z,114.10
2019-01-24T02:52:04.175Z,116.30
2019-01-24T02:53:04.146Z,116.90
2019-01-24T02:54:04.120Z,127.50
2019-01-24T02:55:04.092Z,111.10
2019-01-24T02:56:04.070Z,117.60
2019-01-24T02:57:04.042Z,113.90
2019-01-24T02:58:04.009Z,119.10
2019-01-24T02:59:03.981Z,118.00
2019-01-24T03:00:03.960Z,121.50
2019-01-24T03:01:03.927Z,112.80
2019-01-24T03:02:03.899Z,111.00
2019-01-24T03:03:03.871Z,110.80
2019-01-24T03:04:03.849Z,115.20
2019-01-24T03:05:03.817Z,118.30
2019-01-24T03:06:03.791Z,121.00
2019-01-24T03:07:03.761Z,121.40
2019-01-24T03:08:03.730Z,117.50
2019-01-24T03:09:03.703Z,118.70
2019-01-24T03:10:03.680Z,115.90
2019-01-24T03:11:03.649Z,117.40
2019-01-24T03:12:03.621Z,116.00
2019-01-24T03:13:03.599Z,112.60
2019-01-24T03:14:03.567Z,113.00
2019-01-24T03:15:03.545Z,121.20
2019-01-24T03:16:03.513Z,110.00
2019-01-24T03:17:03.481Z,116.10
2019-01-24T03:18:03.453Z,125.50
2019-01-24T03:19:03.427Z,114.80
2019-01-24T03:20:03.402Z,115.90
2019-01-24T03:21:03.370Z,111.80
2019-01-24T03:22:03.343Z,124.50
2019-01-24T03:23:03.316Z,116.40
2019-01-24T03:24:03.285Z,120.00
2019-01-24T03:25:03.358Z,120.90
2019-01-24T03:26:03.380Z,117.10
2019-01-24T03:27:03.206Z,115.50
2019-01-24T03:28:03.178Z,115.90
2019-01-24T03:29:03.147Z,112.70
2019-01-24T03:30:03.127Z,116.30
2019-01-24T03:31:03.102Z,116.70
2019-01-24T03:32:03.086Z,115.10
2019-01-24T03:33:03.049Z,118.10
2019-01-24T03:34:03.018Z,117.70
2019-01-24T03:35:04.407Z,114.80
2019-01-24T03:36:02.952Z,117.30
2019-01-24T03:37:02.924Z,111.20
2019-01-24T03:38:02.895Z,115.20
2019-01-24T03:39:02.886Z,114.20
2019-01-24T03:40:02.846Z,112.20
2019-01-24T03:41:02.830Z,114.00
2019-01-24T03:42:02.786Z,119.00
2019-01-24T03:43:02.766Z,113.90
2019-01-24T03:44:02.730Z,123.20
2019-01-24T03:45:02.704Z,120.00
2019-01-24T03:46:02.677Z,114.10
2019-01-24T03:47:02.655Z,115.40
2019-01-24T03:48:02.630Z,118.70
2019-01-24T03:49:02.596Z,119.00
2019-01-24T03:50:02.566Z,117.40
2019-01-24T03:51:02.537Z,114.20
2019-01-24T03:52:02.508Z,118.40
2019-01-24T03:53:02.484Z,115.90
2019-01-24T03:54:02.453Z,123.10
2019-01-24T03:55:02.426Z,120.80
2019-01-24T03:56:02.398Z,114.40
2019-01-24T03:57:02.372Z,115.80
2019-01-24T03:58:02.360Z,115.30
2019-01-24T03:59:02.317Z,116.50
2019-01-24T04:00:02.289Z,111.90
2019-01-24T04:01:02.261Z,113.10
2019-01-24T04:02:02.231Z,120.30
2019-01-24T04:03:02.204Z,117.20
2019-01-24T04:04:02.184Z,112.50
2019-01-24T04:05:02.157Z,115.50
2019-01-24T04:06:02.119Z,115.00
2019-01-24T04:07:02.092Z,109.50
2019-01-24T04:08:02.064Z,115.10
2019-01-24T04:09:02.045Z,118.90
2019-01-24T04:10:02.011Z,115.20
2019-01-24T04:11:01.982Z,112.60
2019-01-24T04:12:01.955Z,114.20
2019-01-24T04:13:01.948Z,111.00
2019-01-24T04:14:01.898Z,111.70
2019-01-24T04:15:01.884Z,115.20
2019-01-24T04:16:01.842Z,110.80
2019-01-24T04:17:01.815Z,116.10
2019-01-24T04:18:01.787Z,117.80
2019-01-24T04:19:01.759Z,113.50
2019-01-24T04:20:01.737Z,111.90
2019-01-24T04:21:01.705Z,110.50
2019-01-24T04:22:01.677Z,118.50
2019-01-24T04:23:01.648Z,112.10
2019-01-24T04:24:01.622Z,113.70
2019-01-24T04:25:01.593Z,118.30
2019-01-24T04:26:01.565Z,118.10
2019-01-24T04:27:01.541Z,115.40
2019-01-24T04:28:01.515Z,111.90
2019-01-24T04:29:01.491Z,112.60
2019-01-24T04:30:01.462Z,114.40
2019-01-24T04:31:01.445Z,117.80
2019-01-24T04:32:01.402Z,113.70
2019-01-24T04:33:01.374Z,114.60
2019-01-24T04:34:01.345Z,114.50
2019-01-24T04:35:01.323Z,107.60
2019-01-24T04:36:01.289Z,118.50
2019-01-24T04:37:01.267Z,110.40
2019-01-24T04:38:01.236Z,113.40
2019-01-24T04:39:01.204Z,112.20
2019-01-24T04:40:01.184Z,110.10
2019-01-24T04:41:01.156Z,108.10
2019-01-24T04:42:01.125Z,116.70
2019-01-24T04:43:01.113Z,112.40
2019-01-24T04:44:01.070Z,114.10
2019-01-24T04:45:01.044Z,117.30
2019-01-24T04:46:01.015Z,111.30
2019-01-24T04:47:00.991Z,111.60
2019-01-24T04:48:00.963Z,119.00
2019-01-24T04:49:00.933Z,118.10
2019-01-24T04:50:00.906Z,111.30
2019-01-24T04:51:00.877Z,108.50
2019-01-24T04:52:00.854Z,116.70
2019-01-24T04:53:00.824Z,118.00
2019-01-24T04:54:00.800Z,114.40
2019-01-24T04:55:00.767Z,109.90
2019-01-24T04:56:00.741Z,110.30
2019-01-24T04:57:00.714Z,114.80
2019-01-24T04:58:00.687Z,110.00
2019-01-24T04:59:00.656Z,113.10
2019-01-24T05:00:00.629Z,113.00
2019-01-24T05:01:00.601Z,110.80
2019-01-24T05:02:00.575Z,110.20
2019-01-24T05:03:00.548Z,111.00
2019-01-24T05:04:00.533Z,113.00
2019-01-24T05:05:00.491Z,111.10
2019-01-24T05:06:00.470Z,107.10
2019-01-24T05:07:00.448Z,115.60
2019-01-24T05:08:00.413Z,130.80
2019-01-24T05:09:00.418Z,119.30
2019-01-24T05:10:00.359Z,127.70
2019-01-24T05:11:00.325Z,139.60
2019-01-24T05:12:00.303Z,121.10
2019-01-24T05:13:00.282Z,138.50
2019-01-24T05:14:00.246Z,123.80
2019-01-24T05:15:00.376Z,121.00
2019-01-24T05:16:00.195Z,114.40
2019-01-24T05:17:00.168Z,110.40
2019-01-24T05:18:00.137Z,110.80
2019-01-24T05:19:00.116Z,112.00
2019-01-24T05:20:00.153Z,107.90
2019-01-24T05:21:00.057Z,108.30
2019-01-24T05:22:00.026Z,107.30
2019-01-24T05:23:00.001Z,109.20
2019-01-24T05:23:59.974Z,109.70
2019-01-24T05:24:59.947Z,111.20
2019-01-24T05:25:59.925Z,105.70
2019-01-24T05:26:59.890Z,110.00
2019-01-24T05:27:59.863Z,107.00
2019-01-24T05:28:59.835Z,109.00
2019-01-24T05:29:59.806Z,111.40
2019-01-24T05:30:59.790Z,110.20
2019-01-24T05:31:59.757Z,106.20
2019-01-24T05:32:59.737Z,111.40
2019-01-24T05:33:59.700Z,123.40
2019-01-24T05:34:59.671Z,113.20
2019-01-24T05:35:59.644Z,107.50
2019-01-24T05:36:59.619Z,106.90
2019-01-24T05:37:59.592Z,111.20
2019-01-24T05:38:59.564Z,113.60
2019-01-24T05:39:59.544Z,106.20
2019-01-24T05:40:59.508Z,105.10
2019-01-24T05:41:59.485Z,111.40
2019-01-24T05:42:59.453Z,113.10
2019-01-24T05:43:59.426Z,111.10
2019-01-24T05:44:59.402Z,113.30
2019-01-24T05:45:59.709Z,106.70
2019-01-24T05:46:59.346Z,109.10
2019-01-24T05:47:59.319Z,110.30
2019-01-24T05:48:59.293Z,107.90
2019-01-24T05:50:59.234Z,107.00
2019-01-24T05:51:59.209Z,108.00
2019-01-24T05:52:59.187Z,105.70
2019-01-24T05:53:59.155Z,104.00
2019-01-24T05:54:59.144Z,105.20
2019-01-24T05:55:59.099Z,104.30
2019-01-24T05:56:59.079Z,112.10
2019-01-24T05:57:59.048Z,108.90
2019-01-24T05:58:59.027Z,107.40
2019-01-24T05:59:58.997Z,106.60
2019-01-24T06:00:58.978Z,105.40
2019-01-24T06:01:58.937Z,107.40
2019-01-24T06:02:58.907Z,110.50
2019-01-24T06:03:58.890Z,117.40
2019-01-24T06:04:58.858Z,111.40
2019-01-24T06:05:58.829Z,113.10
2019-01-24T06:06:58.805Z,108.30
2019-01-24T06:07:58.780Z,112.00
2019-01-24T06:08:58.770Z,111.50
2019-01-24T06:09:58.722Z,105.20
2019-01-24T06:10:58.705Z,108.20
2019-01-24T06:11:58.995Z,116.20
2019-01-24T06:12:58.649Z,112.50
2019-01-24T06:13:58.625Z,112.30
2019-01-24T06:14:58.596Z,111.50
2019-01-24T06:15:58.564Z,110.80
2019-01-24T06:16:58.528Z,107.90
2019-01-24T06:17:58.503Z,112.10
2019-01-24T06:18:58.473Z,107.50
2019-01-24T06:19:58.457Z,109.20
2019-01-24T06:20:58.426Z,105.20
2019-01-24T06:21:58.395Z,110.50
2019-01-24T06:22:58.686Z,111.60
2019-01-24T06:23:58.339Z,104.90
2019-01-24T06:24:58.315Z,107.70
2019-01-24T06:25:58.284Z,108.40
2019-01-24T06:26:58.258Z,103.90
2019-01-24T06:27:58.234Z,105.60
2019-01-24T06:28:58.201Z,99.60
2019-01-24T06:29:58.175Z,100.50
2019-01-24T06:30:58.152Z,100.40
2019-01-24T06:31:58.120Z,107.40
2019-01-24T06:32:58.094Z,106.40
2019-01-24T06:33:58.071Z,102.80
2019-01-24T06:34:58.043Z,107.90
2019-01-24T06:35:58.014Z,110.40
2019-01-24T06:36:58.198Z,102.40
2019-01-24T06:37:57.958Z,104.70
2019-01-24T06:38:57.930Z,98.70
2019-01-24T06:39:57.904Z,104.20
2019-01-24T06:40:57.878Z,108.30
2019-01-24T06:41:57.851Z,108.10
2019-01-24T06:42:57.823Z,103.90
2019-01-24T06:43:57.795Z,113.10
2019-01-24T06:44:57.772Z,109.70
2019-01-24T06:45:57.743Z,100.70
2019-01-24T06:46:57.711Z,107.10
2019-01-24T06:47:57.686Z,110.10
2019-01-24T06:48:57.663Z,110.00
2019-01-24T06:49:57.634Z,102.40
2019-01-24T06:50:57.610Z,101.70
2019-01-24T06:51:57.578Z,105.90
2019-01-24T06:52:57.551Z,106.20
2019-01-24T06:53:57.525Z,103.60
2019-01-24T06:54:57.493Z,105.50
2019-01-24T06:55:57.467Z,103.60
2019-01-24T06:56:57.438Z,106.50
2019-01-24T06:57:57.416Z,106.10
2019-01-24T06:58:57.386Z,106.10
2019-01-24T06:59:57.355Z,107.00
2019-01-24T07:00:57.335Z,103.30
2019-01-24T07:01:57.305Z,97.70
2019-01-24T07:02:57.276Z,101.30
2019-01-24T07:03:57.249Z,101.10
2019-01-24T07:04:57.224Z,98.70
2019-01-24T07:05:57.197Z,97.80
2019-01-24T07:06:57.168Z,102.50
2019-01-24T07:07:57.141Z,107.50
2019-01-24T07:08:57.116Z,101.40
2019-01-24T07:09:57.097Z,100.70
2019-01-24T07:10:57.059Z,104.30
2019-01-24T07:11:57.031Z,106.30
2019-01-24T07:12:57.006Z,108.20
2019-01-24T07:13:56.984Z,98.00
2019-01-24T07:14:56.959Z,103.80
2019-01-24T07:15:56.963Z,106.80
2019-01-24T07:16:56.902Z,100.60
2019-01-24T07:17:56.877Z,97.80
2019-01-24T07:18:56.848Z,94.60
2019-01-24T07:19:56.815Z,102.40
2019-01-24T07:20:56.790Z,102.10
2019-01-24T07:21:56.763Z,96.60
2019-01-24T07:22:56.733Z,97.90
2019-01-24T07:23:56.711Z,103.00
2019-01-24T07:24:56.684Z,103.10
2019-01-24T07:25:56.652Z,104.30
2019-01-24T07:26:56.640Z,101.60
2019-01-24T07:27:56.610Z,104.10
2019-01-24T07:28:56.573Z,97.70
2019-01-24T07:29:56.558Z,106.30
2019-01-24T07:30:56.515Z,107.70
2019-01-24T07:31:56.491Z,107.00
2019-01-24T07:32:56.465Z,100.50
2019-01-24T07:33:56.437Z,103.20
2019-01-24T07:34:56.406Z,107.70
2019-01-24T07:36:01.973Z,99.40
2019-01-24T07:36:56.354Z,106.40
2019-01-24T07:37:56.329Z,106.60
2019-01-24T07:38:56.299Z,100.40
2019-01-24T07:39:56.271Z,95.20
2019-01-24T07:40:56.247Z,102.20
2019-01-24T07:41:56.221Z,95.70
2019-01-24T07:42:56.196Z,103.80
2019-01-24T07:43:56.174Z,97.90
2019-01-24T07:44:56.137Z,102.30
2019-01-24T07:45:56.111Z,101.00
2019-01-24T07:46:56.090Z,93.30
2019-01-24T07:47:56.054Z,101.60
2019-01-24T07:48:56.030Z,94.10
2019-01-24T07:49:56.005Z,98.70
2019-01-24T07:50:56.023Z,103.50
2019-01-24T07:51:55.946Z,101.90
2019-01-24T07:52:55.929Z,103.20
2019-01-24T07:53:55.892Z,105.90
2019-01-24T07:54:55.863Z,104.10
2019-01-24T07:55:55.842Z,95.40
2019-01-24T07:56:55.814Z,99.60
2019-01-24T07:57:55.787Z,98.20
2019-01-24T07:58:55.757Z,103.20
2019-01-24T07:59:55.731Z,100.20
2019-01-24T08:00:55.701Z,95.90
2019-01-24T08:01:55.679Z,102.10
2019-01-24T08:02:55.646Z,110.20
2019-01-24T08:03:55.641Z,98.70
2019-01-24T08:04:55.595Z,96.90
2019-01-24T08:05:55.567Z,106.10
2019-01-24T08:06:55.539Z,104.70
2019-01-24T08:07:55.514Z,93.90
2019-01-24T08:08:55.491Z,106.30
2019-01-24T08:09:55.461Z,103.70
2019-01-24T08:10:55.435Z,97.20
2019-01-24T08:11:55.403Z,98.70
2019-01-24T08:12:55.390Z,104.60
2019-01-24T08:13:55.352Z,100.00
2019-01-24T08:14:55.324Z,108.40
2019-01-24T08:15:55.311Z,102.40
2019-01-24T08:16:55.273Z,107.20
2019-01-24T08:17:55.247Z,99.90
2019-01-24T08:18:55.216Z,99.50
2019-01-24T08:19:55.190Z,104.90
2019-01-24T08:20:55.170Z,104.30
2019-01-24T08:21:55.135Z,100.30
2019-01-24T08:22:55.114Z,107.90
2019-01-24T08:23:55.088Z,99.90
2019-01-24T08:24:55.049Z,99.50
2019-01-24T08:25:55.022Z,107.90
2019-01-24T08:26:54.995Z,105.70
2019-01-24T08:27:54.976Z,100.60
2019-01-24T08:28:54.947Z,97.90
2019-01-24T08:29:54.914Z,101.40
2019-01-24T08:30:54.887Z,95.90
2019-01-24T08:31:54.868Z,102.40
2019-01-24T08:32:54.835Z,100.40
2019-01-24T08:33:54.806Z,105.50
2019-01-24T08:34:54.778Z,104.60
2019-01-24T08:35:54.754Z,95.90
2019-01-24T08:36:54.726Z,104.80
2019-01-24T08:37:54.706Z,102.90
2019-01-24T08:38:54.697Z,98.40
2019-01-24T08:39:54.643Z,105.70
2019-01-24T08:40:54.618Z,104.80
2019-01-24T08:41:54.590Z,99.70
2019-01-24T08:42:54.559Z,102.30
2019-01-24T08:43:54.534Z,102.70
2019-01-24T08:44:54.510Z,98.40
2019-01-24T08:45:54.484Z,99.40
2019-01-24T08:46:54.452Z,108.30
2019-01-24T08:47:54.428Z,105.10
2019-01-24T08:48:54.401Z,110.20
2019-01-24T08:49:54.373Z,104.80
2019-01-24T08:50:54.349Z,106.40
2019-01-24T08:51:54.319Z,102.30
2019-01-24T08:52:54.295Z,98.40
2019-01-24T08:53:54.263Z,108.80
2019-01-24T08:54:54.244Z,107.40
2019-01-24T08:55:54.225Z,104.50
2019-01-24T08:56:54.192Z,101.00
2019-01-24T08:57:54.157Z,106.10
2019-01-24T08:58:54.133Z,103.80
2019-01-24T08:59:54.109Z,103.60
2019-01-24T09:00:54.076Z,97.70
2019-01-24T09:01:54.052Z,95.20
2019-01-24T09:02:54.020Z,108.50
2019-01-24T09:03:53.994Z,108.10
2019-01-24T09:04:53.966Z,107.40
2019-01-24T09:05:53.946Z,109.60
2019-01-24T09:06:53.913Z,101.10
2019-01-24T09:07:53.886Z,100.10
2019-01-24T09:08:53.863Z,104.60
2019-01-24T09:09:53.830Z,109.60
2019-01-24T09:10:53.809Z,108.70
2019-01-24T09:11:53.779Z,102.90
2019-01-24T09:12:53.749Z,104.90
2019-01-24T09:13:53.731Z,102.60
2019-01-24T09:14:53.700Z,99.90
2019-01-24T09:15:53.671Z,101.20
2019-01-24T09:16:53.645Z,104.70
2019-01-24T09:17:53.614Z,108.10
2019-01-24T09:18:53.591Z,101.90
2019-01-24T09:19:53.562Z,107.60
2019-01-24T09:20:53.540Z,113.80
2019-01-24T09:21:53.506Z,110.80
2019-01-24T09:22:55.373Z,109.20
2019-01-24T09:23:53.457Z,108.50
2019-01-24T09:24:53.428Z,109.70
2019-01-24T09:25:53.406Z,104.70
2019-01-24T09:26:53.372Z,110.50
2019-01-24T09:27:53.355Z,107.00
2019-01-24T09:28:53.327Z,111.70
2019-01-24T09:29:53.299Z,97.70
2019-01-24T09:30:53.269Z,104.10
2019-01-24T09:31:53.241Z,103.90
2019-01-24T09:32:53.212Z,97.80
2019-01-24T09:33:53.185Z,102.50
2019-01-24T09:34:53.165Z,109.60
2019-01-24T09:35:53.140Z,111.60
2019-01-24T09:36:53.108Z,109.00
2019-01-24T09:37:53.089Z,110.30
2019-01-24T09:38:53.052Z,107.30
2019-01-24T09:39:53.030Z,102.10
2019-01-24T09:40:53.003Z,102.30
2019-01-24T09:41:52.976Z,100.40
2019-01-24T09:42:52.945Z,111.10
2019-01-24T09:43:52.924Z,106.00
2019-01-24T09:44:52.894Z,109.00
2019-01-24T09:45:52.864Z,111.30
2019-01-24T09:46:52.842Z,104.10
2019-01-24T09:47:52.813Z,101.10
2019-01-24T09:48:52.786Z,105.20
2019-01-24T09:49:52.762Z,105.20
2019-01-24T09:50:52.735Z,107.60
2019-01-24T09:51:52.708Z,111.70
2019-01-24T09:52:52.679Z,101.60
2019-01-24T09:53:52.652Z,107.00
2019-01-24T09:54:52.632Z,105.50
2019-01-24T09:55:52.601Z,104.20
2019-01-24T09:56:52.581Z,108.00
2019-01-24T09:57:52.546Z,109.50
2019-01-24T09:58:52.517Z,109.50
2019-01-24T09:59:52.492Z,101.00
2019-01-24T10:00:52.466Z,101.40
2019-01-24T10:01:52.444Z,105.50
2019-01-24T10:02:52.417Z,109.70
2019-01-24T10:03:52.384Z,105.50
2019-01-24T10:04:52.359Z,101.70
2019-01-24T10:05:52.333Z,110.60
2019-01-24T10:06:52.307Z,107.40
2019-01-24T10:07:52.280Z,110.90
2019-01-24T10:08:52.258Z,105.10
2019-01-24T10:09:52.230Z,108.10
2019-01-24T10:10:52.204Z,112.10
2019-01-24T10:11:52.183Z,105.70
2019-01-24T10:12:52.150Z,102.80
2019-01-24T10:13:52.126Z,106.40
2019-01-24T10:14:52.099Z,114.40
2019-01-24T10:15:52.069Z,100.00
2019-01-24T10:16:52.044Z,102.00
2019-01-24T10:17:52.022Z,104.60
2019-01-24T10:18:51.991Z,107.20
2019-01-24T10:19:51.967Z,107.90
2019-01-24T10:20:51.942Z,111.60
2019-01-24T10:21:51.910Z,115.50
2019-01-24T10:22:51.891Z,113.90
2019-01-24T10:23:51.858Z,106.40
2019-01-24T10:24:51.827Z,112.60
2019-01-24T10:25:51.809Z,110.20
2019-01-24T10:26:51.779Z,112.40
2019-01-24T10:27:51.750Z,104.90
2019-01-24T10:28:51.734Z,100.90
2019-01-24T10:29:51.695Z,104.50
2019-01-24T10:30:51.672Z,108.50
2019-01-24T10:31:51.642Z,111.40
2019-01-24T10:32:51.613Z,110.10
2019-01-24T10:33:51.592Z,110.00
2019-01-24T10:34:51.563Z,110.90
2019-01-24T10:35:51.536Z,106.90
2019-01-24T10:36:51.509Z,111.10
2019-01-24T10:37:51.489Z,95.90
2019-01-24T10:38:51.459Z,106.30
2019-01-24T10:39:51.441Z,103.60
2019-01-24T10:40:51.402Z,112.10
2019-01-24T10:41:51.394Z,114.00
2019-01-24T10:42:51.352Z,104.30
2019-01-24T10:43:51.326Z,107.10
2019-01-24T10:44:51.300Z,108.30
2019-01-24T10:45:51.271Z,109.90
2019-01-24T10:46:52.569Z,106.10
2019-01-24T10:47:51.222Z,112.20
2019-01-24T10:48:51.198Z,111.00
2019-01-24T10:49:51.165Z,106.40
2019-01-24T10:50:51.141Z,103.40
2019-01-24T10:51:51.114Z,111.10
2019-01-24T10:52:51.092Z,111.30
2019-01-24T10:53:51.060Z,111.10
2019-01-24T10:54:51.033Z,108.10
2019-01-24T10:55:51.014Z,110.30
2019-01-24T10:56:50.982Z,110.40
2019-01-24T10:57:50.953Z,107.70
2019-01-24T10:58:50.932Z,102.60
2019-01-24T10:59:50.909Z,107.50
2019-01-24T11:00:50.881Z,110.00
2019-01-24T11:01:50.848Z,109.60
2019-01-24T11:02:50.824Z,106.90
2019-01-24T11:03:50.797Z,106.10
2019-01-24T11:04:50.769Z,104.60
2019-01-24T11:05:50.743Z,110.80
2019-01-24T11:06:50.719Z,109.00
2019-01-24T11:07:50.694Z,107.40
2019-01-24T11:08:50.667Z,105.60
2019-01-24T11:09:50.640Z,103.50
2019-01-24T11:10:50.615Z,111.50
2019-01-24T11:11:50.585Z,108.60
2019-01-24T11:12:50.557Z,119.50
2019-01-24T11:13:50.532Z,116.90
2019-01-24T11:14:50.508Z,112.00
2019-01-24T11:15:50.477Z,112.50
2019-01-24T11:16:50.455Z,112.50
2019-01-24T11:17:50.430Z,111.20
2019-01-24T11:18:50.405Z,110.30
2019-01-24T11:19:50.372Z,109.00
2019-01-24T11:20:50.359Z,107.20
2019-01-24T11:21:50.321Z,111.40
2019-01-24T11:22:50.299Z,105.50
2019-01-24T11:23:50.275Z,113.20
2019-01-24T11:24:50.241Z,109.70
2019-01-24T11:25:50.252Z,108.40
2019-01-24T11:26:50.188Z,110.30
2019-01-24T11:27:50.157Z,114.60
2019-01-24T11:28:50.131Z,104.10
2019-01-24T11:29:50.106Z,104.50
2019-01-24T11:30:50.081Z,104.10
2019-01-24T11:31:50.052Z,104.90
2019-01-24T11:32:50.027Z,103.00
2019-01-24T11:33:50.001Z,107.30
2019-01-24T11:34:49.978Z,101.60
2019-01-24T11:35:49.947Z,101.70
2019-01-24T11:36:49.937Z,98.00
2019-01-24T11:37:49.903Z,101.10
2019-01-24T11:38:49.871Z,101.00
2019-01-24T11:39:49.840Z,103.00
2019-01-24T11:40:49.812Z,104.20
2019-01-24T11:41:49.786Z,98.60
2019-01-24T11:42:49.769Z,109.50
2019-01-24T11:43:49.731Z,106.60
2019-01-24T11:44:49.708Z,111.50
2019-01-24T11:45:49.683Z,106.00
2019-01-24T11:46:49.655Z,101.50
2019-01-24T11:47:49.630Z,98.10
2019-01-24T11:48:49.614Z,107.00
2019-01-24T11:49:49.574Z,101.70
2019-01-24T11:50:51.110Z,102.40
2019-01-24T11:51:49.523Z,101.80
2019-01-24T11:52:49.495Z,102.40
2019-01-24T11:53:53.223Z,94.70
2019-01-24T11:54:49.440Z,102.40
2019-01-24T11:55:49.419Z,105.90
2019-01-24T11:56:49.388Z,100.00
2019-01-24T11:57:49.370Z,104.30
2019-01-24T11:58:49.340Z,103.80
2019-01-24T11:59:49.308Z,101.70
2019-01-24T12:00:49.280Z,90.00
2019-01-24T12:01:49.256Z,94.20
2019-01-24T12:02:49.236Z,91.00
2019-01-24T12:03:49.202Z,94.10
2019-01-24T12:04:49.179Z,98.00
2019-01-24T12:05:49.152Z,101.30
2019-01-24T12:06:49.126Z,94.30
2019-01-24T12:07:49.094Z,94.10
2019-01-24T12:08:49.071Z,95.10
2019-01-24T12:09:49.056Z,95.90
2019-01-24T12:10:49.017Z,96.50
2019-01-24T12:11:48.998Z,103.60
2019-01-24T12:12:48.960Z,102.90
2019-01-24T12:13:48.943Z,102.20
2019-01-24T12:14:48.906Z,99.60
2019-01-24T12:15:48.892Z,103.70
2019-01-24T12:16:48.860Z,105.50
2019-01-24T12:17:48.824Z,98.90
2019-01-24T12:18:48.814Z,100.70
2019-01-24T12:19:48.774Z,104.60
2019-01-24T12:20:48.747Z,107.40
2019-01-24T12:21:48.729Z,105.30
2019-01-24T12:22:48.702Z,103.00
2019-01-24T12:23:48.672Z,99.00
2019-01-24T12:24:48.638Z,99.90
2019-01-24T12:25:48.619Z,102.00
2019-01-24T12:26:48.586Z,104.40
2019-01-24T12:27:48.570Z,101.50
2019-01-24T12:28:48.540Z,98.30
2019-01-24T12:29:48.510Z,103.90
2019-01-24T12:30:48.485Z,102.20
2019-01-24T12:31:48.456Z,105.00
2019-01-24T12:32:48.445Z,103.40
2019-01-24T12:33:48.407Z,94.00
2019-01-24T12:34:48.372Z,95.90